PWSweather.com
Personal Weather Stations
Station Observations
WATERF01
WaterfordIE

WaterfordIE

Lat: 52.2412507, Lon: -7.1414691

Elevation: 65

Station Type: Davis Vantage Vue

www.waterfordweather.com

High Low Average
Temperature 49.9°F9.9°C 34.3°F1.3°C 43.6°F6.4°C
Dew Point 48.5°F9.2°C 33.5°F0.8°C 42.4°F5.8°C
Winds 5.8 mph 9.3 kmh Calm Calm 1.0 mph SW1.6 kmh SW
Wind Gusts 11.5 mph18.5 kmh -- 3.0 mph4.8 kmh
Humidity 97% 94% 96%
Pressure 30.48 in1032.2 mb 30.29 in1025.7 mb -
Precipitation 0.00 in0.0 mm - -
Hour Temp Dew Point Humidity Winds Wind Gusts Pressure Precip Precip Rate Daily Precip Total
12:00 AM 46.2°F7.9°C 44.6°F7.0°C 94% 2.3 mph NW3.7 kmh NW 4.6 mph7.4 kmh 30.29 in1025.7 mb - 0.00 in0.0 mm 0.00 in0.0 mm
12:10 AM 46.1°F7.8°C 44.5°F6.9°C 94% 3.5 mph NW5.6 kmh NW 5.8 mph9.3 kmh 30.29 in1025.7 mb - 0.00 in0.0 mm 0.00 in0.0 mm
12:20 AM 45.9°F7.7°C 44.3°F6.8°C 94% 3.5 mph NW5.6 kmh NW 5.8 mph9.3 kmh 30.30 in1026.1 mb - 0.00 in0.0 mm 0.00 in0.0 mm
12:30 AM 45.6°F7.6°C 44.0°F6.7°C 94% Calm Calm -- 30.30 in1026.1 mb - 0.00 in0.0 mm 0.00 in0.0 mm
12:40 AM 45.1°F7.3°C 43.5°F6.4°C 94% Calm Calm -- 30.30 in1026.1 mb - 0.00 in0.0 mm 0.00 in0.0 mm
12:50 AM 44.6°F7.0°C 43.0°F6.1°C 94% Calm Calm -- 30.30 in1026.1 mb - 0.00 in0.0 mm 0.00 in0.0 mm
01:00 AM 44.4°F6.9°C 43.1°F6.2°C 95% 1.2 mph NW1.9 kmh NW 2.3 mph3.7 kmh 30.31 in1026.4 mb - 0.00 in0.0 mm 0.00 in0.0 mm
01:10 AM 44.7°F7.1°C 43.4°F6.3°C 95% 1.2 mph NW1.9 kmh NW 2.3 mph3.7 kmh 30.31 in1026.4 mb - 0.00 in0.0 mm 0.00 in0.0 mm
01:20 AM 44.5°F6.9°C 43.2°F6.2°C 95% Calm Calm 2.3 mph3.7 kmh 30.32 in1026.8 mb - 0.00 in0.0 mm 0.00 in0.0 mm
01:30 AM 44.3°F6.8°C 43.0°F6.1°C 95% Calm Calm -- 30.32 in1026.8 mb - 0.00 in0.0 mm 0.00 in0.0 mm
01:40 AM 44.1°F6.7°C 42.8°F6.0°C 95% Calm Calm -- 30.32 in1026.8 mb - 0.00 in0.0 mm 0.00 in0.0 mm
01:50 AM 42.4°F5.8°C 40.8°F4.9°C 94% Calm Calm -- 30.33 in1027.1 mb - 0.00 in0.0 mm 0.00 in0.0 mm
02:00 AM 41.7°F5.4°C 40.3°F4.6°C 95% Calm Calm -- 30.33 in1027.1 mb - 0.00 in0.0 mm 0.00 in0.0 mm
02:10 AM 42.2°F5.7°C 40.9°F4.9°C 95% Calm Calm -- 30.33 in1027.1 mb - 0.00 in0.0 mm 0.00 in0.0 mm
02:20 AM 41.7°F5.4°C 40.4°F4.7°C 95% Calm Calm -- 30.34 in1027.4 mb - 0.00 in0.0 mm 0.00 in0.0 mm
02:30 AM 41.5°F5.3°C 40.2°F4.6°C 95% Calm Calm -- 30.34 in1027.4 mb - 0.00 in0.0 mm 0.00 in0.0 mm
02:40 AM 41.0°F5.0°C 39.7°F4.3°C 95% Calm Calm -- 30.34 in1027.4 mb - 0.00 in0.0 mm 0.00 in0.0 mm
02:50 AM 41.3°F5.2°C 40.3°F4.6°C 96% Calm Calm -- 30.34 in1027.4 mb - 0.00 in0.0 mm 0.00 in0.0 mm
03:00 AM 41.1°F5.1°C 40.0°F4.4°C 96% Calm Calm -- 30.34 in1027.4 mb - 0.00 in0.0 mm 0.00 in0.0 mm
03:10 AM 40.9°F4.9°C 39.8°F4.3°C 96% Calm Calm -- 30.34 in1027.4 mb - 0.00 in0.0 mm 0.00 in0.0 mm
03:20 AM 40.6°F4.8°C 39.5°F4.2°C 96% Calm Calm -- 30.34 in1027.4 mb - 0.00 in0.0 mm 0.00 in0.0 mm
03:30 AM 40.3°F4.6°C 39.3°F4.1°C 96% Calm Calm -- 30.34 in1027.4 mb - 0.00 in0.0 mm 0.00 in0.0 mm
03:40 AM 39.7°F4.3°C 38.6°F3.7°C 96% Calm Calm -- 30.34 in1027.4 mb - 0.00 in0.0 mm 0.00 in0.0 mm
03:50 AM 40.0°F4.4°C 38.9°F3.8°C 96% Calm Calm -- 30.34 in1027.4 mb - 0.00 in0.0 mm 0.00 in0.0 mm
04:00 AM 39.8°F4.3°C 38.8°F3.8°C 96% Calm Calm -- 30.34 in1027.4 mb - 0.00 in0.0 mm 0.00 in0.0 mm
04:10 AM 39.6°F4.2°C 38.6°F3.7°C 96% Calm Calm -- 30.34 in1027.4 mb - 0.00 in0.0 mm 0.00 in0.0 mm
04:20 AM 39.3°F4.1°C 38.3°F3.5°C 96% Calm Calm -- 30.35 in1027.8 mb - 0.00 in0.0 mm 0.00 in0.0 mm
04:30 AM 38.9°F3.8°C 37.9°F3.3°C 96% Calm Calm -- 30.35 in1027.8 mb - 0.00 in0.0 mm 0.00 in0.0 mm
04:40 AM 38.7°F3.7°C 37.6°F3.1°C 96% 1.2 mph W1.9 kmh W 2.3 mph3.7 kmh 30.35 in1027.8 mb - 0.00 in0.0 mm 0.00 in0.0 mm
04:50 AM 38.3°F3.5°C 37.3°F2.9°C 96% Calm Calm -- 30.35 in1027.8 mb - 0.00 in0.0 mm 0.00 in0.0 mm
05:00 AM 38.5°F3.6°C 37.4°F3.0°C 96% Calm Calm -- 30.35 in1027.8 mb - 0.00 in0.0 mm 0.00 in0.0 mm
05:10 AM 38.1°F3.4°C 37.1°F2.8°C 96% Calm Calm -- 30.36 in1028.1 mb - 0.00 in0.0 mm 0.00 in0.0 mm
05:20 AM 37.3°F2.9°C 36.3°F2.4°C 96% Calm Calm -- 30.36 in1028.1 mb - 0.00 in0.0 mm 0.00 in0.0 mm
05:30 AM 36.9°F2.7°C 35.9°F2.2°C 96% Calm Calm -- 30.36 in1028.1 mb - 0.00 in0.0 mm 0.00 in0.0 mm
05:40 AM 37.0°F2.8°C 36.0°F2.2°C 96% Calm Calm -- 30.37 in1028.4 mb - 0.00 in0.0 mm 0.00 in0.0 mm
05:50 AM 36.8°F2.7°C 35.8°F2.1°C 96% Calm Calm -- 30.37 in1028.4 mb - 0.00 in0.0 mm 0.00 in0.0 mm
06:00 AM 36.6°F2.6°C 35.9°F2.2°C 97% Calm Calm -- 30.37 in1028.4 mb - 0.00 in0.0 mm 0.00 in0.0 mm
06:10 AM 36.3°F2.4°C 35.5°F1.9°C 97% Calm Calm -- 30.37 in1028.4 mb - 0.00 in0.0 mm 0.00 in0.0 mm
06:20 AM 35.9°F2.2°C 35.1°F1.7°C 97% Calm Calm -- 30.38 in1028.8 mb - 0.00 in0.0 mm 0.00 in0.0 mm
06:30 AM 35.3°F1.8°C 34.5°F1.4°C 97% Calm Calm -- 30.38 in1028.8 mb - 0.00 in0.0 mm 0.00 in0.0 mm
06:40 AM 34.9°F1.6°C 34.1°F1.2°C 97% Calm Calm -- 30.38 in1028.8 mb - 0.00 in0.0 mm 0.00 in0.0 mm
06:50 AM 35.0°F1.7°C 34.2°F1.2°C 97% Calm Calm -- 30.38 in1028.8 mb - 0.00 in0.0 mm 0.00 in0.0 mm
07:00 AM 35.6°F2.0°C 34.8°F1.6°C 97% Calm Calm -- 30.38 in1028.8 mb - 0.00 in0.0 mm 0.00 in0.0 mm
07:10 AM 34.9°F1.6°C 34.1°F1.2°C 97% Calm Calm -- 30.39 in1029.1 mb - 0.00 in0.0 mm 0.00 in0.0 mm
07:20 AM 35.0°F1.7°C 34.2°F1.2°C 97% Calm Calm -- 30.39 in1029.1 mb - 0.00 in0.0 mm 0.00 in0.0 mm
07:30 AM 35.5°F1.9°C 34.7°F1.5°C 97% Calm Calm -- 30.39 in1029.1 mb - 0.00 in0.0 mm 0.00 in0.0 mm
07:40 AM 35.2°F1.8°C 34.5°F1.4°C 97% Calm Calm -- 30.39 in1029.1 mb - 0.00 in0.0 mm 0.00 in0.0 mm
07:50 AM 35.5°F1.9°C 34.7°F1.5°C 97% Calm Calm -- 30.39 in1029.1 mb - 0.00 in0.0 mm 0.00 in0.0 mm
08:00 AM 35.3°F1.8°C 34.5°F1.4°C 97% Calm Calm -- 30.39 in1029.1 mb - 0.00 in0.0 mm 0.00 in0.0 mm
08:10 AM 35.7°F2.1°C 34.9°F1.6°C 97% Calm Calm -- 30.39 in1029.1 mb - 0.00 in0.0 mm 0.00 in0.0 mm
08:20 AM 35.3°F1.8°C 34.6°F1.4°C 97% Calm Calm -- 30.39 in1029.1 mb - 0.00 in0.0 mm 0.00 in0.0 mm
08:30 AM 34.4°F1.3°C 33.6°F0.9°C 97% Calm Calm -- 30.40 in1029.5 mb - 0.00 in0.0 mm 0.00 in0.0 mm
08:40 AM 34.4°F1.3°C 33.6°F0.9°C 97% Calm Calm -- 30.40 in1029.5 mb - 0.00 in0.0 mm 0.00 in0.0 mm
08:50 AM 34.3°F1.3°C 33.5°F0.8°C 97% Calm Calm -- 30.41 in1029.8 mb - 0.00 in0.0 mm 0.00 in0.0 mm
09:00 AM 34.4°F1.3°C 33.6°F0.9°C 97% Calm Calm -- 30.41 in1029.8 mb - 0.00 in0.0 mm 0.00 in0.0 mm
09:10 AM 34.7°F1.5°C 33.9°F1.1°C 97% Calm Calm -- 30.41 in1029.8 mb - 0.00 in0.0 mm 0.00 in0.0 mm
09:20 AM 35.4°F1.9°C 34.6°F1.4°C 97% Calm Calm -- 30.42 in1030.1 mb - 0.00 in0.0 mm 0.00 in0.0 mm
09:30 AM 35.5°F1.9°C 34.7°F1.5°C 97% Calm Calm -- 30.42 in1030.1 mb - 0.00 in0.0 mm 0.00 in0.0 mm
09:40 AM 35.8°F2.1°C 35.0°F1.7°C 97% Calm Calm -- 30.42 in1030.1 mb - 0.00 in0.0 mm 0.00 in0.0 mm
09:50 AM 35.9°F2.2°C 35.2°F1.8°C 97% Calm Calm -- 30.43 in1030.5 mb - 0.00 in0.0 mm 0.00 in0.0 mm
10:00 AM 36.0°F2.2°C 35.2°F1.8°C 97% Calm Calm -- 30.43 in1030.5 mb - 0.00 in0.0 mm 0.00 in0.0 mm
10:10 AM 36.3°F2.4°C 35.6°F2.0°C 97% Calm Calm -- 30.43 in1030.5 mb - 0.00 in0.0 mm 0.00 in0.0 mm
10:20 AM 36.8°F2.7°C 36.0°F2.2°C 97% Calm Calm -- 30.44 in1030.8 mb - 0.00 in0.0 mm 0.00 in0.0 mm
10:30 AM 37.2°F2.9°C 36.4°F2.4°C 97% Calm Calm -- 30.44 in1030.8 mb - 0.00 in0.0 mm 0.00 in0.0 mm
10:40 AM 37.2°F2.9°C 36.4°F2.4°C 97% Calm Calm 2.3 mph3.7 kmh 30.45 in1031.2 mb - 0.00 in0.0 mm 0.00 in0.0 mm
10:50 AM 37.4°F3.0°C 36.6°F2.6°C 97% Calm Calm -- 30.45 in1031.2 mb - 0.00 in0.0 mm 0.00 in0.0 mm
11:00 AM 38.1°F3.4°C 37.3°F2.9°C 97% Calm Calm -- 30.45 in1031.2 mb - 0.00 in0.0 mm 0.00 in0.0 mm
11:10 AM 38.6°F3.7°C 37.8°F3.2°C 97% Calm Calm -- 30.45 in1031.2 mb - 0.00 in0.0 mm 0.00 in0.0 mm
11:20 AM 39.4°F4.1°C 38.6°F3.7°C 97% Calm Calm -- 30.45 in1031.2 mb - 0.00 in0.0 mm 0.00 in0.0 mm
11:30 AM 39.8°F4.3°C 39.0°F3.9°C 97% 2.3 mph ESE3.7 kmh ESE 2.3 mph3.7 kmh 30.45 in1031.2 mb - 0.00 in0.0 mm 0.00 in0.0 mm
11:40 AM 40.6°F4.8°C 39.8°F4.3°C 97% 1.2 mph E1.9 kmh E 2.3 mph3.7 kmh 30.45 in1031.2 mb - 0.00 in0.0 mm 0.00 in0.0 mm
11:50 AM 41.3°F5.2°C 40.5°F4.7°C 97% Calm Calm -- 30.45 in1031.2 mb - 0.00 in0.0 mm 0.00 in0.0 mm
12:00 PM 41.9°F5.5°C 41.1°F5.1°C 97% Calm Calm -- 30.45 in1031.2 mb - 0.00 in0.0 mm 0.00 in0.0 mm
12:10 PM 42.6°F5.9°C 41.8°F5.4°C 97% 1.2 mph S1.9 kmh S 2.3 mph3.7 kmh 30.44 in1030.8 mb - 0.00 in0.0 mm 0.00 in0.0 mm
12:20 PM 43.3°F6.3°C 42.5°F5.8°C 97% 2.3 mph SE3.7 kmh SE 4.6 mph7.4 kmh 30.44 in1030.8 mb - 0.00 in0.0 mm 0.00 in0.0 mm
12:30 PM 44.0°F6.7°C 43.2°F6.2°C 97% Calm Calm -- 30.44 in1030.8 mb - 0.00 in0.0 mm 0.00 in0.0 mm
12:40 PM 44.7°F7.1°C 43.9°F6.6°C 97% Calm Calm -- 30.43 in1030.5 mb - 0.00 in0.0 mm 0.00 in0.0 mm
12:50 PM 45.3°F7.4°C 44.5°F6.9°C 97% Calm Calm -- 30.44 in1030.8 mb - 0.00 in0.0 mm 0.00 in0.0 mm
01:00 PM 46.0°F7.8°C 45.2°F7.3°C 97% 2.3 mph ESE3.7 kmh ESE 4.6 mph7.4 kmh 30.44 in1030.8 mb - 0.00 in0.0 mm 0.00 in0.0 mm
01:10 PM 47.3°F8.5°C 46.5°F8.1°C 97% 2.3 mph SSE3.7 kmh SSE 5.8 mph9.3 kmh 30.44 in1030.8 mb - 0.00 in0.0 mm 0.00 in0.0 mm
01:20 PM 48.3°F9.1°C 47.5°F8.6°C 97% 2.3 mph SSW3.7 kmh SSW 4.6 mph7.4 kmh 30.43 in1030.5 mb - 0.00 in0.0 mm 0.00 in0.0 mm
01:30 PM 48.7°F9.3°C 47.6°F8.7°C 96% 2.3 mph SW3.7 kmh SW 4.6 mph7.4 kmh 30.43 in1030.5 mb - 0.00 in0.0 mm 0.00 in0.0 mm
01:40 PM 48.8°F9.3°C 47.7°F8.7°C 96% 3.5 mph SSW5.6 kmh SSW 5.8 mph9.3 kmh 30.44 in1030.8 mb - 0.00 in0.0 mm 0.00 in0.0 mm
01:50 PM 48.9°F9.4°C 47.8°F8.8°C 96% 3.5 mph S5.6 kmh S 5.8 mph9.3 kmh 30.44 in1030.8 mb - 0.00 in0.0 mm 0.00 in0.0 mm
02:00 PM 49.0°F9.4°C 47.6°F8.7°C 95% 4.6 mph S7.4 kmh S 6.9 mph11.1 kmh 30.44 in1030.8 mb - 0.00 in0.0 mm 0.00 in0.0 mm
02:10 PM 49.1°F9.5°C 47.7°F8.7°C 95% 4.6 mph S7.4 kmh S 5.8 mph9.3 kmh 30.44 in1030.8 mb - 0.00 in0.0 mm 0.00 in0.0 mm
02:20 PM 49.3°F9.6°C 47.9°F8.8°C 95% 4.6 mph S7.4 kmh S 6.9 mph11.1 kmh 30.44 in1030.8 mb - 0.00 in0.0 mm 0.00 in0.0 mm
02:30 PM 49.6°F9.8°C 48.2°F9.0°C 95% Calm Calm 2.3 mph3.7 kmh 30.43 in1030.5 mb - 0.00 in0.0 mm 0.00 in0.0 mm
02:40 PM 49.7°F9.8°C 48.3°F9.1°C 95% Calm Calm 2.3 mph3.7 kmh 30.43 in1030.5 mb - 0.00 in0.0 mm 0.00 in0.0 mm
02:50 PM 49.7°F9.8°C 48.3°F9.1°C 95% 3.5 mph SE5.6 kmh SE 4.6 mph7.4 kmh 30.43 in1030.5 mb - 0.00 in0.0 mm 0.00 in0.0 mm
03:00 PM 49.7°F9.8°C 48.3°F9.1°C 95% Calm Calm -- 30.43 in1030.5 mb - 0.00 in0.0 mm 0.00 in0.0 mm
03:10 PM 49.9°F9.9°C 48.5°F9.2°C 95% 3.5 mph SW5.6 kmh SW 5.8 mph9.3 kmh 30.44 in1030.8 mb - 0.00 in0.0 mm 0.00 in0.0 mm
03:20 PM 49.9°F9.9°C 48.5°F9.2°C 95% 3.5 mph S5.6 kmh S 8.1 mph13.0 kmh 30.44 in1030.8 mb - 0.00 in0.0 mm 0.00 in0.0 mm
03:30 PM 49.7°F9.8°C 48.0°F8.9°C 94% 2.3 mph WSW3.7 kmh WSW 2.3 mph3.7 kmh 30.44 in1030.8 mb - 0.00 in0.0 mm 0.00 in0.0 mm
03:40 PM 49.5°F9.7°C 47.8°F8.8°C 94% 1.2 mph WSW1.9 kmh WSW 2.3 mph3.7 kmh 30.44 in1030.8 mb - 0.00 in0.0 mm 0.00 in0.0 mm
03:50 PM 49.1°F9.5°C 47.7°F8.7°C 95% 2.3 mph SW3.7 kmh SW 2.3 mph3.7 kmh 30.44 in1030.8 mb - 0.00 in0.0 mm 0.00 in0.0 mm
04:00 PM 48.8°F9.3°C 47.4°F8.6°C 95% 1.2 mph SW1.9 kmh SW 2.3 mph3.7 kmh 30.44 in1030.8 mb - 0.00 in0.0 mm 0.00 in0.0 mm
04:10 PM 48.4°F9.1°C 47.0°F8.3°C 95% 1.2 mph SW1.9 kmh SW 1.2 mph1.9 kmh 30.44 in1030.8 mb - 0.00 in0.0 mm 0.00 in0.0 mm
04:20 PM 48.2°F9.0°C 46.9°F8.3°C 95% 1.2 mph S1.9 kmh S 2.3 mph3.7 kmh 30.44 in1030.8 mb - 0.00 in0.0 mm 0.00 in0.0 mm
04:30 PM 48.1°F8.9°C 46.7°F8.2°C 95% Calm Calm -- 30.44 in1030.8 mb - 0.00 in0.0 mm 0.00 in0.0 mm
04:40 PM 48.0°F8.9°C 46.6°F8.1°C 95% Calm Calm 2.3 mph3.7 kmh 30.45 in1031.2 mb - 0.00 in0.0 mm 0.00 in0.0 mm
04:50 PM 47.9°F8.8°C 46.5°F8.1°C 95% 1.2 mph S1.9 kmh S 2.3 mph3.7 kmh 30.45 in1031.2 mb - 0.00 in0.0 mm 0.00 in0.0 mm
05:00 PM 47.9°F8.8°C 46.5°F8.1°C 95% Calm Calm 2.3 mph3.7 kmh 30.45 in1031.2 mb - 0.00 in0.0 mm 0.00 in0.0 mm
05:10 PM 48.0°F8.9°C 46.6°F8.1°C 95% Calm Calm 2.3 mph3.7 kmh 30.45 in1031.2 mb - 0.00 in0.0 mm 0.00 in0.0 mm
05:20 PM 48.1°F8.9°C 46.7°F8.2°C 95% Calm Calm 2.3 mph3.7 kmh 30.45 in1031.2 mb - 0.00 in0.0 mm 0.00 in0.0 mm
05:30 PM 48.3°F9.1°C 46.9°F8.3°C 95% 2.3 mph S3.7 kmh S 2.3 mph3.7 kmh 30.45 in1031.2 mb - 0.00 in0.0 mm 0.00 in0.0 mm
05:40 PM 48.2°F9.0°C 46.8°F8.2°C 95% Calm Calm 1.2 mph1.9 kmh 30.45 in1031.2 mb - 0.00 in0.0 mm 0.00 in0.0 mm
05:50 PM 48.1°F8.9°C 46.7°F8.2°C 95% Calm Calm 1.2 mph1.9 kmh 30.46 in1031.5 mb - 0.00 in0.0 mm 0.00 in0.0 mm
06:00 PM 48.0°F8.9°C 46.6°F8.1°C 95% Calm Calm -- 30.46 in1031.5 mb - 0.00 in0.0 mm 0.00 in0.0 mm
06:10 PM 48.0°F8.9°C 46.7°F8.2°C 95% Calm Calm 2.3 mph3.7 kmh 30.46 in1031.5 mb - 0.00 in0.0 mm 0.00 in0.0 mm
06:20 PM 48.1°F8.9°C 46.8°F8.2°C 95% 3.5 mph SW5.6 kmh SW 4.6 mph7.4 kmh 30.46 in1031.5 mb - 0.00 in0.0 mm 0.00 in0.0 mm
06:30 PM 48.5°F9.2°C 47.1°F8.4°C 95% 3.5 mph SW5.6 kmh SW 5.8 mph9.3 kmh 30.46 in1031.5 mb - 0.00 in0.0 mm 0.00 in0.0 mm
06:40 PM 48.6°F9.2°C 47.2°F8.4°C 95% 2.3 mph WSW3.7 kmh WSW 5.8 mph9.3 kmh 30.46 in1031.5 mb - 0.00 in0.0 mm 0.00 in0.0 mm
06:50 PM 48.8°F9.3°C 47.4°F8.6°C 95% 2.3 mph SE3.7 kmh SE 5.8 mph9.3 kmh 30.46 in1031.5 mb - 0.00 in0.0 mm 0.00 in0.0 mm
07:00 PM 48.9°F9.4°C 47.5°F8.6°C 95% 4.6 mph WSW7.4 kmh WSW 9.2 mph14.8 kmh 30.47 in1031.8 mb - 0.00 in0.0 mm 0.00 in0.0 mm
07:10 PM 49.0°F9.4°C 47.6°F8.7°C 95% 4.6 mph SW7.4 kmh SW 9.2 mph14.8 kmh 30.47 in1031.8 mb - 0.00 in0.0 mm 0.00 in0.0 mm
07:20 PM 49.1°F9.5°C 47.7°F8.7°C 95% 4.6 mph SSW7.4 kmh SSW 6.9 mph11.1 kmh 30.47 in1031.8 mb - 0.00 in0.0 mm 0.00 in0.0 mm
07:30 PM 49.2°F9.6°C 47.8°F8.8°C 95% 5.8 mph SSW9.3 kmh SSW 8.1 mph13.0 kmh 30.46 in1031.5 mb - 0.00 in0.0 mm 0.00 in0.0 mm
07:40 PM 49.2°F9.6°C 47.8°F8.8°C 95% 3.5 mph W5.6 kmh W 5.8 mph9.3 kmh 30.47 in1031.8 mb - 0.00 in0.0 mm 0.00 in0.0 mm
07:50 PM 49.3°F9.6°C 47.9°F8.8°C 95% 2.3 mph W3.7 kmh W 5.8 mph9.3 kmh 30.47 in1031.8 mb - 0.00 in0.0 mm 0.00 in0.0 mm
08:00 PM 49.3°F9.6°C 47.9°F8.8°C 95% 5.8 mph W9.3 kmh W 8.1 mph13.0 kmh 30.47 in1031.8 mb - 0.00 in0.0 mm 0.00 in0.0 mm
08:10 PM 49.4°F9.7°C 47.7°F8.7°C 94% 4.6 mph W7.4 kmh W 6.9 mph11.1 kmh 30.47 in1031.8 mb - 0.00 in0.0 mm 0.00 in0.0 mm
08:20 PM 49.4°F9.7°C 47.7°F8.7°C 94% 4.6 mph W7.4 kmh W 6.9 mph11.1 kmh 30.46 in1031.5 mb - 0.00 in0.0 mm 0.00 in0.0 mm
08:30 PM 49.4°F9.7°C 47.7°F8.7°C 94% 4.6 mph WSW7.4 kmh WSW 8.1 mph13.0 kmh 30.46 in1031.5 mb - 0.00 in0.0 mm 0.00 in0.0 mm
08:40 PM 49.5°F9.7°C 48.1°F8.9°C 95% 4.6 mph W7.4 kmh W 8.1 mph13.0 kmh 30.47 in1031.8 mb - 0.00 in0.0 mm 0.00 in0.0 mm
08:50 PM 49.5°F9.7°C 48.1°F8.9°C 95% 4.6 mph W7.4 kmh W 8.1 mph13.0 kmh 30.47 in1031.8 mb - 0.00 in0.0 mm 0.00 in0.0 mm
09:00 PM 49.5°F9.7°C 48.1°F8.9°C 95% 4.6 mph N7.4 kmh N 6.9 mph11.1 kmh 30.47 in1031.8 mb - 0.00 in0.0 mm 0.00 in0.0 mm
09:10 PM 49.5°F9.7°C 48.1°F8.9°C 95% 5.8 mph WSW9.3 kmh WSW 8.1 mph13.0 kmh 30.47 in1031.8 mb - 0.00 in0.0 mm 0.00 in0.0 mm
09:20 PM 49.4°F9.7°C 48.0°F8.9°C 95% 3.5 mph SW5.6 kmh SW 6.9 mph11.1 kmh 30.47 in1031.8 mb - 0.00 in0.0 mm 0.00 in0.0 mm
09:30 PM 49.3°F9.6°C 47.9°F8.8°C 95% 4.6 mph WSW7.4 kmh WSW 9.2 mph14.8 kmh 30.47 in1031.8 mb - 0.00 in0.0 mm 0.00 in0.0 mm
09:40 PM 49.3°F9.6°C 47.9°F8.8°C 95% 4.6 mph WSW7.4 kmh WSW 11.5 mph18.5 kmh 30.47 in1031.8 mb - 0.00 in0.0 mm 0.00 in0.0 mm
09:50 PM 49.3°F9.6°C 47.9°F8.8°C 95% 3.5 mph WNW5.6 kmh WNW 8.1 mph13.0 kmh 30.47 in1031.8 mb - 0.00 in0.0 mm 0.00 in0.0 mm
10:00 PM 49.2°F9.6°C 47.8°F8.8°C 95% 2.3 mph W3.7 kmh W 5.8 mph9.3 kmh 30.47 in1031.8 mb - 0.00 in0.0 mm 0.00 in0.0 mm
10:10 PM 49.2°F9.6°C 47.8°F8.8°C 95% 2.3 mph NW3.7 kmh NW 8.1 mph13.0 kmh 30.48 in1032.2 mb - 0.00 in0.0 mm 0.00 in0.0 mm
10:20 PM 49.2°F9.6°C 47.8°F8.8°C 95% 2.3 mph WNW3.7 kmh WNW 5.8 mph9.3 kmh 30.48 in1032.2 mb - 0.00 in0.0 mm 0.00 in0.0 mm
10:30 PM 49.1°F9.5°C 47.7°F8.7°C 95% 3.5 mph S5.6 kmh S 5.8 mph9.3 kmh 30.48 in1032.2 mb - 0.00 in0.0 mm 0.00 in0.0 mm
10:40 PM 49.0°F9.4°C 47.6°F8.7°C 95% 4.6 mph WSW7.4 kmh WSW 8.1 mph13.0 kmh 30.47 in1031.8 mb - 0.00 in0.0 mm 0.00 in0.0 mm
10:50 PM 48.8°F9.3°C 47.4°F8.6°C 95% 4.6 mph W7.4 kmh W 6.9 mph11.1 kmh 30.47 in1031.8 mb - 0.00 in0.0 mm 0.00 in0.0 mm
11:00 PM 48.7°F9.3°C 47.3°F8.5°C 95% 3.5 mph SSW5.6 kmh SSW 6.9 mph11.1 kmh 30.47 in1031.8 mb - 0.00 in0.0 mm 0.00 in0.0 mm
11:10 PM 48.5°F9.2°C 47.1°F8.4°C 95% 2.3 mph WSW3.7 kmh WSW 5.8 mph9.3 kmh 30.48 in1032.2 mb - 0.00 in0.0 mm 0.00 in0.0 mm
11:20 PM 48.3°F9.1°C 47.2°F8.4°C 96% 3.5 mph SW5.6 kmh SW 5.8 mph9.3 kmh 30.48 in1032.2 mb - 0.00 in0.0 mm 0.00 in0.0 mm
11:30 PM 48.3°F9.1°C 47.2°F8.4°C 96% 3.5 mph WSW5.6 kmh WSW 5.8 mph9.3 kmh 30.48 in1032.2 mb - 0.00 in0.0 mm 0.00 in0.0 mm
11:40 PM 48.2°F9.0°C 47.1°F8.4°C 96% 3.5 mph WNW5.6 kmh WNW 5.8 mph9.3 kmh 30.48 in1032.2 mb - 0.00 in0.0 mm 0.00 in0.0 mm
11:50 PM 48.2°F9.0°C 47.1°F8.4°C 96% 2.3 mph WNW3.7 kmh WNW 5.8 mph9.3 kmh 30.48 in1032.2 mb - 0.00 in0.0 mm 0.00 in0.0 mm